TimeEDT,TemperatureF,Dew PointF,Humidity,Sea Level PressureIn,VisibilityMPH,Wind Direction,Wind SpeedMPH,Gust SpeedMPH,PrecipitationIn,Events,Conditions,WindDirDegrees,DateUTC
12:54 AM,42.1,28.9,60,30.19,10.0,Calm,Calm,-,N/A,,Mostly Cloudy,0,2013-03-30 04:54:00
1:54 AM,44.1,28.0,53,30.19,10.0,Calm,Calm,-,N/A,,Mostly Cloudy,0,2013-03-30 05:54:00
2:54 AM,42.1,28.9,60,30.18,10.0,Calm,Calm,-,N/A,,Scattered Clouds,0,2013-03-30 06:54:00
3:54 AM,37.0,28.9,73,30.18,10.0,Calm,Calm,-,N/A,,Partly Cloudy,0,2013-03-30 07:54:00
4:54 AM,34.0,28.9,82,30.18,10.0,WSW,3.5,-,N/A,,Partly Cloudy,250,2013-03-30 08:54:00
5:54 AM,36.0,30.0,79,30.18,10.0,Calm,Calm,-,N/A,,Mostly Cloudy,0,2013-03-30 09:54:00
6:54 AM,36.0,30.9,82,30.20,10.0,WNW,4.6,-,N/A,,Mostly Cloudy,290,2013-03-30 10:54:00
7:54 AM,37.9,30.9,76,30.21,10.0,Calm,Calm,-,N/A,,Mostly Cloudy,0,2013-03-30 11:54:00
8:54 AM,44.1,30.9,60,30.22,10.0,Calm,Calm,-,N/A,,Mostly Cloudy,0,2013-03-30 12:54:00
9:54 AM,50.0,28.0,43,30.22,10.0,NNE,4.6,-,N/A,,Partly Cloudy,30,2013-03-30 13:54:00
10:54 AM,52.0,27.0,38,30.22,10.0,SSE,6.9,-,N/A,,Scattered Clouds,160,2013-03-30 14:54:00
11:54 AM,54.0,25.0,33,30.19,10.0,NNW,8.1,-,N/A,,Mostly Cloudy,330,2013-03-30 15:54:00
12:54 PM,55.9,24.1,29,30.18,10.0,Variable,3.5,-,0.01,,Mostly Cloudy,0,2013-03-30 16:54:00
1:54 PM,57.0,21.9,26,30.15,10.0,WSW,8.1,-,N/A,,Mostly Cloudy,250,2013-03-30 17:54:00
2:54 PM,59.0,24.1,26,30.13,10.0,West,8.1,-,N/A,,Partly Cloudy,270,2013-03-30 18:54:00
3:54 PM,59.0,19.9,22,30.12,10.0,NW,9.2,16.1,N/A,,Scattered Clouds,320,2013-03-30 19:54:00
4:54 PM,59.0,19.9,22,30.12,10.0,WNW,11.5,17.3,N/A,,Partly Cloudy,290,2013-03-30 20:54:00
5:54 PM,57.0,16.0,20,30.11,10.0,Variable,3.5,-,N/A,,Scattered Clouds,0,2013-03-30 21:54:00
6:54 PM,55.9,18.0,23,30.12,10.0,NW,3.5,-,N/A,,Partly Cloudy,320,2013-03-30 22:54:00
7:54 PM,51.1,19.9,29,30.12,10.0,Calm,Calm,-,N/A,,Scattered Clouds,0,2013-03-30 23:54:00
8:54 PM,48.9,25.0,39,30.14,10.0,SE,4.6,-,N/A,,Scattered Clouds,140,2013-03-31 00:54:00
9:54 PM,46.0,26.1,46,30.14,10.0,Calm,Calm,-,N/A,,Clear,0,2013-03-31 01:54:00
10:54 PM,46.9,25.0,42,30.14,10.0,South,4.6,-,N/A,,Partly Cloudy,170,2013-03-31 02:54:00
11:54 PM,41.0,27.0,57,30.13,10.0,Calm,Calm,-,N/A,,Partly Cloudy,0,2013-03-31 03:54:00